createdAt,value
2022-09-10T00:01:29.913Z,100852.41
2022-09-10T00:06:28.024Z,100858.97
2022-09-10T00:11:25.223Z,100855.22
2022-09-10T00:16:22.183Z,100859.75
2022-09-10T00:21:20.478Z,100851.19
2022-09-10T00:26:22.287Z,100845.13
2022-09-10T00:31:19.501Z,100847.09
2022-09-10T00:36:17.246Z,100860.50
2022-09-10T00:41:14.773Z,100852.31
2022-09-10T00:46:12.256Z,100834.91
2022-09-10T00:51:09.004Z,100842.41
2022-09-10T00:56:07.116Z,100845.13
2022-09-10T01:01:04.010Z,100838.34
2022-09-10T01:06:03.056Z,100825.06
2022-09-10T01:11:06.379Z,100831.38
2022-09-10T01:16:08.190Z,100833.63
2022-09-10T01:21:10.862Z,100833.66
2022-09-10T01:26:19.484Z,100833.50
2022-09-10T01:31:23.879Z,100831.38
2022-09-10T01:36:26.005Z,100830.31
2022-09-10T01:41:23.361Z,100830.00
2022-09-10T01:46:26.908Z,100832.53
2022-09-10T01:51:28.282Z,100825.41
2022-09-10T01:56:35.042Z,100827.91
2022-09-10T02:01:35.921Z,100834.84
2022-09-10T02:06:35.438Z,100827.28
2022-09-10T02:11:42.830Z,100831.25
2022-09-10T02:16:42.922Z,100826.84
2022-09-10T02:21:39.953Z,100825.41
2022-09-10T02:26:39.393Z,100810.91
2022-09-10T02:31:39.020Z,100816.16
2022-09-10T02:36:36.860Z,100823.72
2022-09-10T02:41:34.609Z,100816.75
2022-09-10T02:46:32.821Z,100821.75
2022-09-10T02:51:30.131Z,100816.03
2022-09-10T02:56:29.210Z,100811.34
2022-09-10T03:01:28.019Z,100814.31
2022-09-10T03:06:31.507Z,100809.53
2022-09-10T03:11:28.285Z,100819.94
2022-09-10T03:16:28.384Z,100825.75
2022-09-10T03:21:25.561Z,100816.66
2022-09-10T03:26:27.992Z,100818.47
2022-09-10T03:31:26.536Z,100825.41
2022-09-10T03:36:24.157Z,100830.31
2022-09-10T03:41:21.011Z,100830.13
2022-09-10T03:46:18.007Z,100824.47
2022-09-10T03:51:16.975Z,100825.66
2022-09-10T03:56:19.381Z,100825.47
2022-09-10T04:01:16.407Z,100822.06
2022-09-10T04:06:16.428Z,100821.75
2022-09-10T04:11:13.568Z,100829.53
2022-09-10T04:16:11.497Z,100831.06
2022-09-10T04:21:09.335Z,100830.41
2022-09-10T04:26:11.399Z,100829.28
2022-09-10T04:31:08.576Z,100824.91
2022-09-10T04:36:09.503Z,100821.97
2022-09-10T04:41:10.036Z,100825.50
2022-09-10T04:46:07.531Z,100810.38
2022-09-10T04:51:16.916Z,100812.09
2022-09-10T04:56:22.436Z,100821.69
2022-09-10T05:01:20.013Z,100811.19
2022-09-10T05:06:22.639Z,100819.78
2022-09-10T05:11:19.703Z,100820.56
2022-09-10T05:16:16.991Z,100821.69
2022-09-10T05:21:14.039Z,100825.44
2022-09-10T05:26:13.620Z,100817.22
2022-09-10T05:31:12.343Z,100801.53
2022-09-10T05:36:10.270Z,100803.69
2022-09-10T05:41:09.939Z,100809.38
2022-09-10T05:46:09.894Z,100812.84
2022-09-10T05:51:07.825Z,100811.78
2022-09-10T05:56:07.331Z,100810.91
2022-09-10T06:01:05.872Z,100809.97
2022-09-10T06:06:06.354Z,100793.81
2022-09-10T06:11:06.847Z,100792.81
2022-09-10T06:16:12.045Z,100803.72
2022-09-10T06:21:12.342Z,100817.88
2022-09-10T06:26:12.444Z,100816.44
2022-09-10T06:31:14.999Z,100805.09
2022-09-10T06:36:13.247Z,100812.69
2022-09-10T06:41:12.403Z,100821.94
2022-09-10T06:47:01.648Z,100809.78
2022-09-10T06:51:39.882Z,100816.53
2022-09-10T06:56:39.036Z,100830.38
2022-09-10T07:01:37.358Z,100824.66
2022-09-10T07:06:35.238Z,100812.84
2022-09-10T07:11:41.699Z,100818.31
2022-09-10T07:16:41.623Z,100802.84
2022-09-10T07:21:38.948Z,100822.19
2022-09-10T07:26:38.984Z,100830.59
2022-09-10T07:31:37.683Z,100818.53
2022-09-10T07:36:48.292Z,100826.19
2022-09-10T07:41:46.039Z,100822.00
2022-09-10T07:46:46.389Z,100823.38
2022-09-10T07:51:45.223Z,100825.31
2022-09-10T07:56:55.099Z,100822.63
2022-09-10T08:01:53.201Z,100819.22
2022-09-10T08:06:51.100Z,100818.00
2022-09-10T08:11:47.963Z,100821.41
2022-09-10T08:16:46.894Z,100817.69
2022-09-10T08:21:44.782Z,100831.56
2022-09-10T08:26:45.487Z,100827.94
2022-09-10T08:31:42.592Z,100823.22
2022-09-10T08:36:48.629Z,100816.13
2022-09-10T08:41:51.815Z,100811.06
2022-09-10T08:46:55.049Z,100809.75
2022-09-10T08:51:57.205Z,100804.50
2022-09-10T08:56:57.849Z,100802.66
2022-09-10T09:01:58.753Z,100780.72
2022-09-10T09:07:00.458Z,100773.25
2022-09-10T09:12:02.273Z,100779.00
2022-09-10T09:17:17.474Z,100764.59
2022-09-10T09:22:19.753Z,100757.19
2022-09-10T09:27:20.548Z,100743.25
2022-09-10T09:32:23.177Z,100732.97
2022-09-10T09:37:23.530Z,100727.19
2022-09-10T09:42:23.518Z,100724.56
2022-09-10T09:47:20.948Z,100719.66
2022-09-10T09:52:21.691Z,100699.13
2022-09-10T09:57:19.955Z,100686.31
2022-09-10T10:02:19.456Z,100710.72
2022-09-10T10:07:24.933Z,100711.56
2022-09-10T10:12:22.681Z,100696.75
2022-09-10T10:17:37.116Z,100709.41
2022-09-10T10:22:34.591Z,100710.25
2022-09-10T10:27:34.652Z,100710.41
2022-09-10T10:32:34.467Z,100698.59
2022-09-10T10:37:38.834Z,100687.22
2022-09-10T10:42:38.934Z,100679.28
2022-09-10T10:47:43.101Z,100680.22
2022-09-10T10:52:46.129Z,100680.88
2022-09-10T10:57:50.261Z,100684.72
2022-09-10T11:02:52.570Z,100687.78
2022-09-10T11:07:52.579Z,100682.53
2022-09-10T11:12:52.429Z,100680.88
2022-09-10T11:17:52.682Z,100672.31
2022-09-10T11:22:51.623Z,100654.47
2022-09-10T11:27:51.458Z,100665.53
2022-09-10T11:32:54.162Z,100658.78
2022-09-10T11:37:54.686Z,100652.63
2022-09-10T11:42:52.892Z,100647.41
2022-09-10T11:48:08.763Z,100643.88
2022-09-10T11:53:08.942Z,100632.69
2022-09-10T11:58:20.542Z,100630.16
2022-09-10T12:03:37.450Z,100625.03
2022-09-10T12:08:40.729Z,100619.91
2022-09-10T12:13:39.176Z,100605.53
2022-09-10T12:18:42.891Z,100587.69
2022-09-10T12:23:42.978Z,100582.38
2022-09-10T12:28:57.550Z,100595.81
2022-09-10T12:34:11.890Z,100579.75
2022-09-10T12:39:21.974Z,100575.84
2022-09-10T12:44:44.345Z,100566.22
2022-09-10T12:49:46.238Z,100568.94
2022-09-10T12:54:48.869Z,100550.38
2022-09-10T13:00:03.101Z,100558.09
2022-09-10T13:05:09.883Z,100548.97
2022-09-10T13:10:18.502Z,100545.50
2022-09-10T13:15:22.196Z,100535.97
2022-09-10T13:20:32.586Z,100528.09
2022-09-10T13:25:43.741Z,100524.69
2022-09-10T13:30:43.090Z,100516.94
2022-09-10T13:36:04.011Z,100511.38
2022-09-10T13:41:15.788Z,100516.22
2022-09-10T13:46:21.775Z,100510.63
2022-09-10T13:51:30.508Z,100504.09
2022-09-10T13:56:33.609Z,100495.97
2022-09-10T14:01:49.490Z,100495.72
2022-09-10T14:06:47.053Z,100505.88
2022-09-10T14:11:46.661Z,100499.34
2022-09-10T14:16:44.930Z,100491.72
2022-09-10T14:21:43.141Z,100491.50
2022-09-10T14:26:40.638Z,100496.00
2022-09-10T14:31:37.783Z,100478.97
2022-09-10T14:36:36.237Z,100486.50
2022-09-10T14:41:33.715Z,100476.88
2022-09-10T14:46:48.280Z,100483.06
2022-09-10T14:51:45.171Z,100475.66
2022-09-10T14:56:43.735Z,100471.28
2022-09-10T15:01:42.318Z,100457.59
2022-09-10T15:06:40.443Z,100477.25
2022-09-10T15:11:39.792Z,100470.81
2022-09-10T15:16:37.031Z,100472.31
2022-09-10T15:21:34.301Z,100493.63
2022-09-10T15:26:32.072Z,100489.38
2022-09-10T15:31:32.637Z,100504.63
2022-09-10T15:36:29.661Z,100493.97
2022-09-10T15:41:26.685Z,100500.59
2022-09-10T15:46:24.114Z,100496.22
2022-09-10T15:51:22.489Z,100491.81
2022-09-10T15:56:20.312Z,100494.53
2022-09-10T16:01:17.571Z,100494.06
2022-09-10T16:06:15.375Z,100493.41
2022-09-10T16:11:13.368Z,100485.28
2022-09-10T16:16:15.075Z,100500.22
2022-09-10T16:21:13.348Z,100522.38
2022-09-10T16:26:15.183Z,100526.59
2022-09-10T16:31:13.181Z,100512.19
2022-09-10T16:36:10.411Z,100515.13
2022-09-10T16:41:07.413Z,100528.19
2022-09-10T16:46:06.233Z,100537.06
2022-09-10T16:51:03.447Z,100538.25
2022-09-10T16:56:04.080Z,100542.41
2022-09-10T17:01:00.740Z,100571.63
2022-09-10T17:05:58.529Z,100600.25
2022-09-10T17:10:55.189Z,100618.81
2022-09-10T17:15:53.198Z,100607.34
2022-09-10T17:20:52.430Z,100606.81
2022-09-10T17:25:49.709Z,100653.19
2022-09-10T17:30:46.325Z,100695.97
2022-09-10T17:36:31.208Z,100713.41
2022-09-10T17:41:29.288Z,100703.13
2022-09-10T17:46:26.688Z,100693.44
2022-09-10T17:51:25.606Z,100693.72
2022-09-10T17:56:23.697Z,100728.81
2022-09-10T18:01:23.551Z,100724.41
2022-09-10T18:06:20.946Z,100714.16
2022-09-10T18:11:20.675Z,100716.41
2022-09-10T18:16:20.967Z,100709.03
2022-09-10T18:21:19.155Z,100709.69
2022-09-10T18:26:16.941Z,100710.53
2022-09-10T18:31:13.985Z,100693.41
2022-09-10T18:36:12.397Z,100721.81
2022-09-10T18:41:17.452Z,100725.66
2022-09-10T18:46:14.674Z,100715.66
2022-09-10T18:51:18.200Z,100732.19
2022-09-10T18:56:15.953Z,100727.25
2022-09-10T19:01:16.833Z,100724.38
2022-09-10T19:06:15.415Z,100725.53
2022-09-10T19:11:16.684Z,100737.66
2022-09-10T19:16:13.482Z,100722.41
2022-09-10T19:21:10.820Z,100720.44
2022-09-10T19:26:09.331Z,100708.47
2022-09-10T19:31:06.991Z,100712.00
2022-09-10T19:36:04.463Z,100721.88
2022-09-10T19:41:08.528Z,100729.63
2022-09-10T19:46:06.142Z,100730.16
2022-09-10T19:51:04.588Z,100723.88
2022-09-10T19:56:04.839Z,100722.81
2022-09-10T20:01:07.556Z,100725.66
2022-09-10T20:06:04.808Z,100726.78
2022-09-10T20:11:01.807Z,100723.75
2022-09-10T20:15:59.780Z,100720.66
2022-09-10T20:21:07.613Z,100718.72
2022-09-10T20:26:10.044Z,100724.22
2022-09-10T20:31:08.393Z,100729.41
2022-09-10T20:36:10.328Z,100725.56
2022-09-10T20:41:07.377Z,100736.25
2022-09-10T20:46:04.533Z,100735.66
2022-09-10T20:51:01.304Z,100738.72
2022-09-10T20:56:02.904Z,100746.81
2022-09-10T21:01:04.527Z,100735.88
2022-09-10T21:06:01.783Z,100750.78
2022-09-10T21:11:02.537Z,100757.66
2022-09-10T21:16:09.653Z,100745.72
2022-09-10T21:21:07.553Z,100739.56
2022-09-10T21:26:04.941Z,100734.09
2022-09-10T21:31:02.230Z,100728.88
2022-09-10T21:36:00.031Z,100729.16
2022-09-10T21:40:58.476Z,100736.13
2022-09-10T21:45:55.879Z,100738.88
2022-09-10T21:50:57.073Z,100733.38
2022-09-10T21:55:53.978Z,100734.06
2022-09-10T22:00:50.608Z,100733.91
2022-09-10T22:05:47.829Z,100738.03
2022-09-10T22:10:45.351Z,100750.59
2022-09-10T22:15:42.185Z,100749.81
2022-09-10T22:20:39.067Z,100760.97
2022-09-10T22:25:38.524Z,100762.03
2022-09-10T22:30:36.247Z,100764.78
2022-09-10T22:35:33.991Z,100751.00
2022-09-10T22:40:30.650Z,100761.28
2022-09-10T22:45:28.070Z,100755.56
2022-09-10T22:50:27.618Z,100758.47
2022-09-10T22:55:24.229Z,100751.97
2022-09-10T23:00:27.009Z,100750.88
2022-09-10T23:05:24.445Z,100746.38
2022-09-10T23:10:21.179Z,100739.97
2022-09-10T23:15:23.256Z,100739.19
2022-09-10T23:20:20.153Z,100737.94
2022-09-10T23:25:25.677Z,100735.47
2022-09-10T23:30:22.531Z,100728.94
2022-09-10T23:35:19.304Z,100725.88
2022-09-10T23:40:16.023Z,100721.31
2022-09-10T23:45:14.480Z,100717.91
2022-09-10T23:50:11.132Z,100707.81
2022-09-10T23:55:08.176Z,100703.19
